Letona, Arkansas
Current Conditions -  °F | °C
As of 8:56 PM on Tuesday 21 Oct 2014 (Local Time) from KSRC Reporting Station
Clear Clear  
Wind Chill: 13°   Ceiling: Unl
Heat Index: 13°   Visibility: 10mi
Dew Point: 11°   Wind: 0mph
Humidity: 89%   Direction: NA
Pressure: 30.11"   Gusts: NA
Location:  35.36°N, 91.83°W
Report Text: KSRC 220156Z AUTO 00000KT 10SM CLR 13/11 A3011 RMK AO2 SLP201 T01280111 TSNO
Loading
Personal Weather Stations






























Interactive Weather Map
Tropical Storm Tracking
New forecast layout! Learn more

10-Day Weather Forecast

Advertisements
Track Severe Weather on mobile